createdAt,value
2022-12-23T00:02:00.862Z,6.07
2022-12-23T00:04:27.373Z,6.10
2022-12-23T00:06:53.765Z,6.11
2022-12-23T00:09:21.327Z,6.14
2022-12-23T00:12:13.673Z,6.21
2022-12-23T00:14:58.827Z,6.27
2022-12-23T00:17:25.253Z,6.30
2022-12-23T00:19:51.628Z,6.30
2022-12-23T00:22:18.194Z,6.37
2022-12-23T00:24:44.620Z,6.48
2022-12-23T00:27:11.041Z,6.45
2022-12-23T00:29:37.438Z,6.44
2022-12-23T00:32:04.579Z,6.48
2022-12-23T00:34:31.005Z,6.47
2022-12-23T00:36:57.419Z,6.44
2022-12-23T00:39:42.277Z,6.49
2022-12-23T00:42:27.435Z,6.46
2022-12-23T00:45:13.802Z,6.38
2022-12-23T00:47:58.834Z,6.30
2022-12-23T00:50:25.339Z,6.32
2022-12-23T00:52:51.758Z,6.32
2022-12-23T00:55:18.241Z,6.26
2022-12-23T00:57:44.714Z,6.21
2022-12-23T01:00:11.691Z,6.20
2022-12-23T01:02:57.046Z,6.18
2022-12-23T01:05:38.909Z,6.18
2022-12-23T01:08:08.349Z,6.57
2022-12-23T01:10:39.341Z,6.65
2022-12-23T01:13:07.175Z,6.69
2022-12-23T01:15:33.918Z,7.05
2022-12-23T01:18:00.590Z,7.19
2022-12-23T01:20:27.998Z,7.29
2022-12-23T01:22:54.424Z,7.36
2022-12-23T01:25:20.838Z,7.39
2022-12-23T01:27:47.265Z,7.57
2022-12-23T01:30:13.862Z,7.47
2022-12-23T01:32:40.557Z,7.53
2022-12-23T01:35:07.120Z,7.54
2022-12-23T01:37:33.732Z,7.47
2022-12-23T01:40:00.161Z,7.50
2022-12-23T01:42:46.688Z,7.46
2022-12-23T01:45:32.363Z,7.66
2022-12-23T01:48:21.843Z,7.54
2022-12-23T01:51:05.510Z,7.47
2022-12-23T01:53:37.121Z,7.48
2022-12-23T01:56:10.601Z,7.60
2022-12-23T01:58:40.681Z,7.75
2022-12-23T02:01:27.721Z,7.69
2022-12-23T02:03:58.454Z,7.78
2022-12-23T02:06:53.297Z,7.87
2022-12-23T02:09:26.270Z,7.70
2022-12-23T02:12:30.102Z,7.79
2022-12-23T02:15:51.481Z,7.82
2022-12-23T02:18:30.109Z,7.75
2022-12-23T02:21:21.562Z,7.86
2022-12-23T02:24:00.434Z,7.84
2022-12-23T02:26:46.056Z,7.80
2022-12-23T02:29:57.365Z,7.85
2022-12-23T02:32:48.004Z,7.81
2022-12-23T02:35:35.937Z,7.92
2022-12-23T02:38:11.927Z,7.88
2022-12-23T02:41:09.147Z,7.74
2022-12-23T02:43:41.746Z,7.69
2022-12-23T02:46:20.717Z,7.71
2022-12-23T02:48:58.735Z,7.72
2022-12-23T02:51:32.575Z,7.82
2022-12-23T02:54:03.041Z,7.69
2022-12-23T02:56:33.041Z,7.66
2022-12-23T02:59:11.351Z,7.66
2022-12-23T03:01:39.907Z,7.68
2022-12-23T03:04:07.013Z,7.77
2022-12-23T03:06:39.463Z,7.71
2022-12-23T03:09:13.539Z,7.66
2022-12-23T03:11:42.934Z,7.65
2022-12-23T03:14:27.883Z,7.60
2022-12-23T03:17:09.053Z,7.56
2022-12-23T03:19:48.239Z,7.53
2022-12-23T03:22:32.918Z,7.50
2022-12-23T03:25:20.809Z,7.61
2022-12-23T03:27:59.143Z,7.63
2022-12-23T03:30:26.427Z,7.62
2022-12-23T03:32:58.200Z,7.70
2022-12-23T03:35:31.429Z,7.82
2022-12-23T03:38:01.869Z,7.70
2022-12-23T03:40:35.000Z,7.69
2022-12-23T03:43:08.246Z,7.67
2022-12-23T03:45:45.253Z,7.75
2022-12-23T03:48:29.543Z,7.68
2022-12-23T03:50:59.734Z,7.82
2022-12-23T03:53:32.418Z,7.71
2022-12-23T03:56:06.981Z,7.70
2022-12-23T03:58:43.454Z,7.70
2022-12-23T04:01:20.998Z,7.62
2022-12-23T04:04:03.511Z,7.72
2022-12-23T04:06:37.435Z,7.67
2022-12-23T04:09:07.355Z,7.69
2022-12-23T04:11:36.600Z,7.62
2022-12-23T04:14:03.242Z,7.70
2022-12-23T04:16:30.082Z,7.63
2022-12-23T04:18:56.552Z,7.65
2022-12-23T04:21:23.579Z,7.65
2022-12-23T04:23:49.971Z,7.58
2022-12-23T04:26:16.382Z,7.51
2022-12-23T04:28:42.770Z,7.60
2022-12-23T04:31:09.231Z,7.55
2022-12-23T04:33:36.153Z,7.43
2022-12-23T04:36:02.645Z,7.38
2022-12-23T04:38:29.603Z,7.55
2022-12-23T04:40:55.980Z,7.36
2022-12-23T04:43:23.569Z,7.36
2022-12-23T04:45:51.427Z,7.28
2022-12-23T04:48:18.641Z,7.26
2022-12-23T04:50:45.241Z,7.24
2022-12-23T04:53:11.644Z,7.13
2022-12-23T04:55:38.371Z,7.12
2022-12-23T04:58:04.959Z,7.14
2022-12-23T05:00:37.172Z,7.19
2022-12-23T05:03:06.140Z,7.15
2022-12-23T05:05:32.656Z,7.20
2022-12-23T05:08:05.694Z,7.05
2022-12-23T05:10:32.125Z,7.13
2022-12-23T05:12:58.658Z,7.05
2022-12-23T05:15:25.366Z,7.01
2022-12-23T05:17:51.767Z,6.94
2022-12-23T05:20:18.210Z,6.86
2022-12-23T05:22:44.639Z,6.80
2022-12-23T05:25:11.257Z,6.81
2022-12-23T05:27:37.638Z,6.78
2022-12-23T05:30:04.835Z,6.88
2022-12-23T05:32:31.276Z,6.89
2022-12-23T05:34:57.678Z,6.80
2022-12-23T05:37:24.177Z,6.85
2022-12-23T05:39:50.587Z,6.79
2022-12-23T05:42:19.311Z,6.75
2022-12-23T05:44:45.960Z,6.77
2022-12-23T05:47:12.482Z,6.77
2022-12-23T05:49:38.923Z,6.71
2022-12-23T05:52:05.649Z,6.68
2022-12-23T05:54:32.058Z,6.67
2022-12-23T05:56:58.488Z,6.66
2022-12-23T05:59:30.601Z,6.62
2022-12-23T06:01:57.708Z,6.67
2022-12-23T06:04:24.944Z,6.60
2022-12-23T06:06:51.380Z,6.67
2022-12-23T06:09:17.790Z,6.55
2022-12-23T06:11:44.257Z,6.53
2022-12-23T06:14:10.891Z,6.55
2022-12-23T06:16:37.386Z,6.51
2022-12-23T06:19:04.188Z,6.47
2022-12-23T06:21:30.895Z,6.57
2022-12-23T06:23:57.657Z,6.55
2022-12-23T06:26:24.164Z,6.58
2022-12-23T06:28:50.585Z,6.48
2022-12-23T06:31:17.031Z,6.46
2022-12-23T06:33:43.845Z,6.44
2022-12-23T06:36:10.254Z,6.40
2022-12-23T06:38:36.788Z,6.49
2022-12-23T06:41:03.387Z,6.44
2022-12-23T06:43:29.918Z,6.37
2022-12-23T06:45:56.363Z,6.39
2022-12-23T06:48:23.044Z,6.37
2022-12-23T06:50:49.489Z,6.38
2022-12-23T06:53:15.897Z,6.32
2022-12-23T06:55:42.306Z,6.33
2022-12-23T06:58:08.826Z,6.34
2022-12-23T07:00:35.687Z,6.28
2022-12-23T07:03:02.152Z,6.27
2022-12-23T07:05:36.491Z,6.26
2022-12-23T07:08:03.779Z,6.29
2022-12-23T07:10:30.250Z,6.26
2022-12-23T07:12:56.725Z,6.23
2022-12-23T07:15:23.118Z,6.23
2022-12-23T07:17:49.596Z,6.21
2022-12-23T07:20:16.801Z,6.19
2022-12-23T07:22:43.267Z,6.21
2022-12-23T07:25:09.941Z,6.26
2022-12-23T07:27:36.606Z,6.18
2022-12-23T07:30:03.468Z,6.16
2022-12-23T07:32:30.029Z,6.14
2022-12-23T07:34:56.432Z,6.11
2022-12-23T07:37:25.937Z,6.12
2022-12-23T07:39:52.337Z,6.12
2022-12-23T07:42:44.095Z,6.12
2022-12-23T07:45:05.869Z,6.09
2022-12-23T07:47:32.313Z,6.09
2022-12-23T07:49:58.731Z,6.08
2022-12-23T07:52:25.172Z,6.10
2022-12-23T07:54:51.604Z,6.14
2022-12-23T07:57:17.995Z,6.12
2022-12-23T07:59:44.402Z,6.11
2022-12-23T08:02:11.379Z,6.08
2022-12-23T08:04:42.637Z,6.12
2022-12-23T08:07:12.323Z,6.14
2022-12-23T08:09:38.749Z,6.14
2022-12-23T08:12:05.719Z,6.13
2022-12-23T08:14:32.131Z,6.13
2022-12-23T08:16:58.582Z,6.12
2022-12-23T08:19:25.001Z,6.13
2022-12-23T08:21:51.468Z,6.17
2022-12-23T08:24:17.870Z,6.15
2022-12-23T08:26:44.236Z,6.17
2022-12-23T08:29:10.687Z,6.22
2022-12-23T08:31:37.268Z,6.18
2022-12-23T08:34:03.922Z,6.22
2022-12-23T08:36:32.817Z,6.18
2022-12-23T08:39:02.772Z,6.24
2022-12-23T08:41:32.733Z,6.21
2022-12-23T08:43:59.332Z,6.19
2022-12-23T08:46:26.766Z,6.21
2022-12-23T08:48:54.115Z,6.24
2022-12-23T08:51:46.315Z,6.22
2022-12-23T08:54:13.114Z,6.26
2022-12-23T08:56:42.003Z,6.28
2022-12-23T08:59:18.727Z,6.26
2022-12-23T09:01:46.029Z,6.23
2022-12-23T09:04:12.506Z,6.27
2022-12-23T09:06:41.712Z,6.26
2022-12-23T09:09:10.666Z,6.26
2022-12-23T09:11:37.775Z,6.30
2022-12-23T09:14:06.120Z,6.26
2022-12-23T09:16:32.722Z,6.33
2022-12-23T09:18:59.334Z,6.33
2022-12-23T09:21:26.011Z,6.30
2022-12-23T09:23:52.436Z,6.30
2022-12-23T09:26:22.147Z,6.30
2022-12-23T09:28:48.599Z,6.33
2022-12-23T09:31:15.402Z,6.34
2022-12-23T09:33:42.024Z,6.26
2022-12-23T09:36:08.848Z,6.32
2022-12-23T09:38:36.096Z,6.32
2022-12-23T09:41:10.055Z,6.32
2022-12-23T09:43:52.899Z,6.29
2022-12-23T09:46:22.856Z,6.30
2022-12-23T09:49:14.719Z,6.31
2022-12-23T09:51:41.291Z,6.33
2022-12-23T09:54:17.846Z,6.35
2022-12-23T09:56:52.641Z,6.34
2022-12-23T09:59:37.049Z,6.37
2022-12-23T10:02:26.320Z,6.40
2022-12-23T10:05:26.020Z,6.42
2022-12-23T10:08:01.548Z,6.38
2022-12-23T10:10:42.805Z,6.43
2022-12-23T10:13:23.896Z,6.39
2022-12-23T10:15:51.866Z,6.39
2022-12-23T10:18:46.365Z,6.37
2022-12-23T10:21:29.881Z,6.37
2022-12-23T10:23:56.316Z,6.40
2022-12-23T10:26:29.897Z,6.48
2022-12-23T10:29:19.412Z,6.43
2022-12-23T10:32:33.565Z,6.33
2022-12-23T10:35:33.549Z,6.36
2022-12-23T10:38:16.962Z,6.41
2022-12-23T10:41:08.800Z,6.43
2022-12-23T10:43:54.521Z,6.43
2022-12-23T10:46:33.861Z,6.49
2022-12-23T10:49:20.158Z,6.47
2022-12-23T10:51:57.394Z,6.50
2022-12-23T10:54:28.847Z,6.47
2022-12-23T10:56:55.385Z,6.49
2022-12-23T10:59:28.231Z,6.49
2022-12-23T11:02:02.480Z,6.50
2022-12-23T11:04:35.121Z,6.49
2022-12-23T11:07:34.277Z,6.48
2022-12-23T11:09:54.125Z,6.49
2022-12-23T11:12:26.012Z,6.49
2022-12-23T11:14:56.537Z,6.52
2022-12-23T11:17:24.991Z,6.56
2022-12-23T11:20:20.051Z,6.60
2022-12-23T11:22:48.027Z,6.60
2022-12-23T11:25:42.254Z,6.63
2022-12-23T11:28:11.394Z,6.59
2022-12-23T11:30:56.533Z,6.59
2022-12-23T11:33:28.228Z,6.59
2022-12-23T11:36:04.385Z,6.61
2022-12-23T11:38:31.210Z,6.61
2022-12-23T11:40:58.138Z,6.60
2022-12-23T11:43:27.229Z,6.63
2022-12-23T11:46:18.067Z,6.70
2022-12-23T11:48:50.043Z,6.75
2022-12-23T11:51:26.647Z,6.79
2022-12-23T11:53:59.748Z,6.79
2022-12-23T11:56:29.427Z,6.81
2022-12-23T11:59:06.228Z,6.86
2022-12-23T12:01:33.119Z,6.92
2022-12-23T12:04:03.991Z,6.93
2022-12-23T12:06:32.477Z,6.94
2022-12-23T12:09:02.973Z,6.98
2022-12-23T12:11:36.429Z,7.11
2022-12-23T12:14:08.348Z,7.09
2022-12-23T12:16:54.398Z,7.13
2022-12-23T12:19:26.197Z,7.14
2022-12-23T12:21:59.041Z,7.22
2022-12-23T12:24:31.541Z,7.21
2022-12-23T12:27:02.582Z,7.30
2022-12-23T12:29:51.191Z,7.23
2022-12-23T12:32:53.181Z,7.29
2022-12-23T12:35:32.150Z,7.35
2022-12-23T12:38:13.242Z,7.24
2022-12-23T12:40:47.327Z,7.17
2022-12-23T12:43:33.334Z,7.12
2022-12-23T12:46:06.299Z,7.11
2022-12-23T12:48:47.380Z,7.12
2022-12-23T12:51:38.929Z,7.09
2022-12-23T12:54:32.298Z,7.23
2022-12-23T12:56:59.681Z,7.17
2022-12-23T12:59:33.954Z,7.15
2022-12-23T13:02:07.373Z,7.13
2022-12-23T13:04:58.985Z,7.12
2022-12-23T13:07:40.687Z,7.10
2022-12-23T13:10:57.332Z,7.10
2022-12-23T13:13:29.180Z,7.17
2022-12-23T13:16:22.296Z,7.09
2022-12-23T13:19:04.113Z,7.12
2022-12-23T13:21:54.974Z,7.03
2022-12-23T13:24:31.854Z,7.05
2022-12-23T13:27:11.789Z,7.05
2022-12-23T13:30:02.615Z,7.02
2022-12-23T13:32:45.680Z,7.14
2022-12-23T13:35:12.295Z,7.11
2022-12-23T13:37:53.021Z,7.03
2022-12-23T13:40:39.481Z,6.98
2022-12-23T13:43:18.382Z,6.96
2022-12-23T13:45:47.404Z,6.98
2022-12-23T13:48:41.797Z,7.00
2022-12-23T13:51:23.991Z,7.10
2022-12-23T13:54:14.591Z,7.11
2022-12-23T13:56:52.714Z,7.03
2022-12-23T13:59:19.203Z,7.01
2022-12-23T14:01:52.229Z,6.96
2022-12-23T14:04:35.268Z,6.94
2022-12-23T14:07:21.319Z,6.95
2022-12-23T14:09:53.181Z,6.93
2022-12-23T14:12:27.670Z,6.98
2022-12-23T14:15:41.843Z,6.91
2022-12-23T14:18:39.150Z,6.94
2022-12-23T14:21:29.070Z,6.91
2022-12-23T14:24:04.701Z,6.92
2022-12-23T14:26:56.381Z,6.93
2022-12-23T14:29:39.328Z,6.90
2022-12-23T14:32:20.829Z,6.94
2022-12-23T14:35:16.294Z,7.00
2022-12-23T14:37:43.589Z,6.95
2022-12-23T14:40:38.024Z,6.98
2022-12-23T14:43:23.538Z,6.93
2022-12-23T14:46:05.275Z,6.90
2022-12-23T14:48:47.852Z,7.11
2022-12-23T14:51:14.173Z,7.07
2022-12-23T14:53:53.620Z,6.95
2022-12-23T14:56:43.626Z,7.00
2022-12-23T14:59:16.393Z,6.94
2022-12-23T15:01:52.906Z,6.98
2022-12-23T15:04:34.001Z,6.90
2022-12-23T15:07:16.448Z,6.86
2022-12-23T15:10:00.485Z,6.90
2022-12-23T15:12:33.213Z,6.98
2022-12-23T15:15:14.029Z,6.92
2022-12-23T15:17:41.140Z,7.01
2022-12-23T15:20:23.013Z,6.94
2022-12-23T15:22:50.425Z,6.84
2022-12-23T15:25:29.779Z,6.80
2022-12-23T15:28:01.941Z,6.90
2022-12-23T15:30:46.058Z,6.85
2022-12-23T15:33:51.940Z,6.75
2022-12-23T15:36:06.358Z,6.86
2022-12-23T15:38:37.408Z,6.75
2022-12-23T15:41:13.380Z,6.70
2022-12-23T15:43:41.791Z,6.76
2022-12-23T15:46:26.881Z,6.76
2022-12-23T15:48:56.625Z,6.85
2022-12-23T15:52:06.481Z,6.80
2022-12-23T15:54:34.042Z,6.90
2022-12-23T15:57:02.293Z,6.78
2022-12-23T15:59:37.418Z,6.77
2022-12-23T16:02:58.295Z,6.84
2022-12-23T16:05:07.541Z,6.85
2022-12-23T16:07:40.112Z,6.74
2022-12-23T16:10:19.908Z,6.73
2022-12-23T16:12:50.187Z,6.82
2022-12-23T16:15:31.791Z,6.71
2022-12-23T16:18:25.586Z,6.78
2022-12-23T16:20:57.135Z,6.66
2022-12-23T16:23:28.584Z,6.71
2022-12-23T16:25:55.195Z,6.71
2022-12-23T16:28:26.517Z,6.65
2022-12-23T16:30:56.310Z,6.65
2022-12-23T16:33:26.253Z,6.63
2022-12-23T16:35:54.438Z,6.61
2022-12-23T16:38:25.955Z,6.68
2022-12-23T16:40:55.180Z,6.71
2022-12-23T16:43:24.258Z,6.77
2022-12-23T16:45:54.132Z,6.70
2022-12-23T16:48:30.773Z,6.64
2022-12-23T16:50:57.796Z,6.70
2022-12-23T16:53:24.342Z,6.68
2022-12-23T16:55:55.297Z,6.73
2022-12-23T16:58:25.257Z,6.60
2022-12-23T17:00:53.151Z,6.62
2022-12-23T17:03:20.563Z,6.64
2022-12-23T17:05:47.962Z,6.61
2022-12-23T17:08:14.521Z,6.65
2022-12-23T17:10:44.440Z,6.64
2022-12-23T17:13:17.474Z,6.59
2022-12-23T17:15:44.499Z,6.58
2022-12-23T17:18:17.035Z,6.57
2022-12-23T17:20:46.616Z,6.58
2022-12-23T17:23:25.568Z,6.64
2022-12-23T17:25:52.498Z,6.60
2022-12-23T17:28:19.724Z,6.55
2022-12-23T17:30:46.187Z,6.69
2022-12-23T17:33:19.285Z,6.64
2022-12-23T17:35:45.855Z,6.58
2022-12-23T17:38:16.577Z,6.52
2022-12-23T17:40:47.057Z,6.71
2022-12-23T17:43:18.174Z,6.54
2022-12-23T17:45:45.460Z,6.57
2022-12-23T17:48:19.733Z,6.60
2022-12-23T17:50:48.673Z,6.58
2022-12-23T17:53:19.569Z,6.51
2022-12-23T17:55:46.390Z,6.54
2022-12-23T17:58:13.992Z,6.57
2022-12-23T18:00:40.996Z,6.53
2022-12-23T18:03:19.508Z,6.55
2022-12-23T18:05:45.937Z,6.54
2022-12-23T18:08:12.323Z,6.55
2022-12-23T18:10:40.835Z,6.55
2022-12-23T18:13:13.956Z,6.52
2022-12-23T18:15:42.637Z,6.53
2022-12-23T18:18:26.090Z,6.48
2022-12-23T18:20:57.123Z,6.49
2022-12-23T18:23:26.598Z,6.68
2022-12-23T18:25:54.327Z,6.57
2022-12-23T18:28:20.739Z,6.52
2022-12-23T18:30:47.238Z,6.54
2022-12-23T18:33:13.972Z,6.48
2022-12-23T18:35:50.341Z,6.49
2022-12-23T18:38:17.550Z,6.45
2022-12-23T18:40:44.377Z,6.38
2022-12-23T18:43:31.121Z,6.36
2022-12-23T18:45:57.577Z,6.34
2022-12-23T18:48:24.265Z,6.39
2022-12-23T18:50:50.680Z,6.52
2022-12-23T18:53:25.211Z,6.39
2022-12-23T18:55:53.173Z,6.39
2022-12-23T18:58:20.204Z,6.32
2022-12-23T19:00:48.252Z,6.34
2022-12-23T19:03:27.324Z,6.41
2022-12-23T19:05:55.202Z,6.32
2022-12-23T19:08:26.720Z,6.27
2022-12-23T19:10:55.175Z,6.43
2022-12-23T19:13:22.527Z,6.36
2022-12-23T19:15:49.421Z,6.33
2022-12-23T19:18:18.610Z,6.46
2022-12-23T19:20:46.200Z,6.45
2022-12-23T19:23:12.900Z,6.39
2022-12-23T19:25:50.767Z,6.41
2022-12-23T19:28:20.899Z,6.35
2022-12-23T19:30:47.403Z,6.29
2022-12-23T19:33:13.834Z,6.27
2022-12-23T19:35:44.091Z,6.37
2022-12-23T19:38:12.337Z,6.43
2022-12-23T19:40:39.965Z,6.44
2022-12-23T19:43:06.790Z,6.48
2022-12-23T19:45:33.256Z,6.44
2022-12-23T19:47:59.686Z,6.33
2022-12-23T19:50:27.114Z,6.32
2022-12-23T19:52:55.140Z,6.41
2022-12-23T19:55:21.882Z,6.37
2022-12-23T19:57:49.163Z,6.30
2022-12-23T20:00:15.873Z,6.34
2022-12-23T20:02:43.321Z,6.39
2022-12-23T20:05:10.136Z,6.27
2022-12-23T20:07:36.936Z,6.27
2022-12-23T20:10:05.287Z,6.23
2022-12-23T20:12:32.086Z,6.25
2022-12-23T20:14:58.488Z,6.19
2022-12-23T20:17:25.407Z,6.30
2022-12-23T20:19:51.818Z,6.17
2022-12-23T20:22:18.292Z,6.15
2022-12-23T20:24:45.026Z,6.25
2022-12-23T20:27:13.947Z,6.17
2022-12-23T20:29:42.095Z,6.32
2022-12-23T20:32:08.526Z,6.26
2022-12-23T20:34:39.567Z,6.20
2022-12-23T20:37:07.462Z,6.19
2022-12-23T20:39:34.278Z,6.22
2022-12-23T20:42:00.889Z,6.29
2022-12-23T20:44:36.551Z,6.24
2022-12-23T20:47:05.372Z,6.21
2022-12-23T20:49:31.986Z,6.18
2022-12-23T20:51:58.387Z,6.15
2022-12-23T20:54:32.132Z,6.14
2022-12-23T20:56:59.816Z,6.14
2022-12-23T20:59:26.492Z,6.10
2022-12-23T21:01:53.073Z,6.15
2022-12-23T21:04:20.380Z,6.19
2022-12-23T21:06:46.782Z,6.21
2022-12-23T21:09:15.050Z,6.19
2022-12-23T21:11:44.323Z,6.15
2022-12-23T21:14:11.239Z,6.26
2022-12-23T21:16:38.748Z,6.19
2022-12-23T21:19:13.023Z,6.13
2022-12-23T21:21:39.621Z,6.11
2022-12-23T21:24:06.735Z,6.08
2022-12-23T21:26:35.338Z,6.10
2022-12-23T21:29:04.584Z,6.12
2022-12-23T21:31:32.934Z,6.07
2022-12-23T21:34:00.207Z,6.06
2022-12-23T21:36:31.136Z,6.04
2022-12-23T21:38:58.429Z,6.04
2022-12-23T21:41:28.062Z,6.09
2022-12-23T21:43:56.279Z,6.10
2022-12-23T21:46:24.215Z,6.12
2022-12-23T21:48:51.847Z,6.07
2022-12-23T21:51:21.365Z,6.08
2022-12-23T21:53:50.140Z,6.11
2022-12-23T21:56:27.114Z,6.19
2022-12-23T21:58:58.447Z,6.16
2022-12-23T22:01:25.872Z,6.14
2022-12-23T22:03:53.609Z,6.15
2022-12-23T22:06:23.352Z,6.09
2022-12-23T22:08:51.483Z,6.08
2022-12-23T22:11:30.371Z,6.13
2022-12-23T22:13:58.674Z,6.12
2022-12-23T22:16:27.145Z,6.09
2022-12-23T22:18:54.717Z,6.16
2022-12-23T22:21:24.107Z,6.26
2022-12-23T22:23:52.149Z,6.15
2022-12-23T22:26:25.608Z,6.23
2022-12-23T22:28:57.798Z,6.14
2022-12-23T22:31:24.215Z,6.10
2022-12-23T22:33:50.689Z,6.07
2022-12-23T22:36:17.541Z,6.06
2022-12-23T22:38:44.405Z,6.03
2022-12-23T22:41:11.098Z,6.08
2022-12-23T22:43:38.073Z,6.03
2022-12-23T22:46:05.592Z,5.98
2022-12-23T22:48:32.296Z,6.18
2022-12-23T22:51:26.489Z,6.17
2022-12-23T22:53:53.409Z,6.08
2022-12-23T22:56:21.534Z,6.08
2022-12-23T22:58:49.033Z,6.05
2022-12-23T23:01:22.279Z,6.00
2022-12-23T23:03:54.172Z,6.03
2022-12-23T23:06:20.560Z,6.00
2022-12-23T23:08:47.010Z,5.99
2022-12-23T23:11:13.447Z,5.94
2022-12-23T23:13:42.601Z,5.97
2022-12-23T23:16:09.195Z,5.97
2022-12-23T23:18:35.734Z,5.94
2022-12-23T23:21:03.559Z,5.99
2022-12-23T23:23:29.950Z,5.97
2022-12-23T23:25:56.439Z,6.00
2022-12-23T23:28:23.175Z,5.96
2022-12-23T23:30:59.065Z,5.94
2022-12-23T23:33:36.006Z,5.96
2022-12-23T23:36:03.357Z,5.99
2022-12-23T23:38:29.805Z,5.97
2022-12-23T23:40:57.958Z,6.01
2022-12-23T23:43:25.166Z,5.97
2022-12-23T23:45:52.391Z,5.92
2022-12-23T23:48:19.088Z,6.05
2022-12-23T23:50:45.598Z,6.01
2022-12-23T23:53:12.437Z,5.99
2022-12-23T23:55:39.389Z,6.10
2022-12-23T23:58:07.294Z,5.96
